createdAt,value
2019-03-25T00:02:28.550Z,99786.01
2019-03-25T00:05:35.015Z,99787.62
2019-03-25T00:08:41.438Z,99785.19
2019-03-25T00:11:47.935Z,99788.33
2019-03-25T00:14:54.220Z,99788.41
2019-03-25T00:18:00.631Z,99790.58
2019-03-25T00:21:07.189Z,99785.21
2019-03-25T00:24:13.486Z,99783.10
2019-03-25T00:27:19.958Z,99785.21
2019-03-25T00:30:26.250Z,99781.02
2019-03-25T00:33:32.523Z,99784.98
2019-03-25T00:36:39.011Z,99786.94
2019-03-25T00:39:45.256Z,99788.52
2019-03-25T00:42:51.596Z,99783.92
2019-03-25T00:45:57.922Z,99779.02
2019-03-25T00:49:04.317Z,99781.91
2019-03-25T00:52:10.672Z,99781.36
2019-03-25T00:55:16.972Z,99776.20
2019-03-25T00:58:23.447Z,99782.75
2019-03-25T01:01:29.712Z,99782.81
2019-03-25T01:04:36.057Z,99774.27
2019-03-25T01:07:43.630Z,99763.30
2019-03-25T01:10:49.984Z,99763.43
2019-03-25T01:13:56.275Z,99749.59
2019-03-25T01:17:02.739Z,99747.80
2019-03-25T01:20:09.616Z,99744.42
2019-03-25T01:23:15.911Z,99736.27
2019-03-25T01:26:22.337Z,99736.98
2019-03-25T01:29:28.731Z,99727.48
2019-03-25T01:32:35.100Z,99733.34
2019-03-25T01:35:41.390Z,99726.11
2019-03-25T01:38:48.674Z,99719.40
2019-03-25T01:41:55.098Z,99712.25
2019-03-25T01:45:01.419Z,99716.77
2019-03-25T01:48:07.735Z,99717.71
2019-03-25T01:51:14.108Z,99713.36
2019-03-25T01:54:20.497Z,99712.73
2019-03-25T01:57:26.859Z,99703.90
2019-03-25T02:00:33.218Z,99700.00
2019-03-25T02:03:39.571Z,99704.48
2019-03-25T02:06:45.931Z,99694.88
2019-03-25T02:09:52.285Z,99697.81
2019-03-25T02:12:59.834Z,99701.48
2019-03-25T02:16:06.196Z,99699.33
2019-03-25T02:19:12.434Z,99691.81
2019-03-25T02:22:19.905Z,99699.32
2019-03-25T02:25:26.199Z,99689.16
2019-03-25T02:28:32.407Z,99692.88
2019-03-25T02:31:38.717Z,99684.09
2019-03-25T02:34:44.941Z,99676.13
2019-03-25T02:37:51.369Z,99679.09
2019-03-25T02:40:57.680Z,99674.34
2019-03-25T02:44:04.028Z,99668.11
2019-03-25T02:47:10.312Z,99670.08
2019-03-25T02:50:16.688Z,99666.19
2019-03-25T02:53:23.160Z,99657.00
2019-03-25T02:56:29.435Z,99662.09
2019-03-25T02:59:35.745Z,99667.84
2019-03-25T03:02:42.044Z,99670.11
2019-03-25T03:05:48.346Z,99677.08
2019-03-25T03:08:54.627Z,99681.27
2019-03-25T03:12:01.852Z,99684.11
2019-03-25T03:15:09.332Z,99685.03
2019-03-25T03:18:15.586Z,99683.82
2019-03-25T03:21:21.876Z,99687.45
2019-03-25T03:24:28.133Z,99680.79
2019-03-25T03:27:34.437Z,99674.47
2019-03-25T03:30:40.696Z,99671.70
2019-03-25T03:33:46.999Z,99668.63
2019-03-25T03:36:53.251Z,99675.44
2019-03-25T03:39:59.549Z,99666.32
2019-03-25T03:43:06.087Z,99664.62
2019-03-25T03:46:12.459Z,99657.20
2019-03-25T03:49:18.821Z,99659.32
2019-03-25T03:52:25.246Z,99658.85
2019-03-25T03:55:31.798Z,99647.95
2019-03-25T03:58:39.792Z,99654.55
2019-03-25T04:01:47.060Z,99653.90
2019-03-25T04:04:53.356Z,99649.25
2019-03-25T04:07:59.770Z,99644.45
2019-03-25T04:11:06.319Z,99638.88
2019-03-25T04:14:13.690Z,99635.53
2019-03-25T04:17:20.043Z,99634.92
2019-03-25T04:20:26.351Z,99629.10
2019-03-25T04:23:32.626Z,99621.28
2019-03-25T04:26:38.925Z,99629.38
2019-03-25T04:29:45.269Z,99622.39
2019-03-25T04:32:51.656Z,99622.09
2019-03-25T04:35:57.923Z,99629.01
2019-03-25T04:39:05.974Z,99628.02
2019-03-25T04:42:12.240Z,99632.98
2019-03-25T04:45:18.723Z,99627.59
2019-03-25T04:48:24.991Z,99630.38
2019-03-25T04:51:31.302Z,99633.95
2019-03-25T04:54:37.565Z,99635.37
2019-03-25T04:57:45.027Z,99636.56
2019-03-25T05:00:51.922Z,99642.19
2019-03-25T05:03:58.230Z,99638.33
2019-03-25T05:07:04.729Z,99640.70
2019-03-25T05:10:12.635Z,99639.03
2019-03-25T05:13:18.946Z,99642.94
2019-03-25T05:16:25.330Z,99641.28
2019-03-25T05:19:31.986Z,99638.34
2019-03-25T05:22:38.287Z,99635.95
2019-03-25T05:25:44.554Z,99639.62
2019-03-25T05:28:50.871Z,99634.70
2019-03-25T05:31:57.149Z,99630.64
2019-03-25T05:35:03.503Z,99635.11
2019-03-25T05:38:09.785Z,99632.75
2019-03-25T05:41:23.415Z,99636.00
2019-03-25T05:44:34.877Z,99627.28
2019-03-25T05:47:41.378Z,99625.06
2019-03-25T05:50:47.778Z,99625.08
2019-03-25T05:53:54.290Z,99621.55
2019-03-25T05:57:02.675Z,99625.28
2019-03-25T06:00:09.391Z,99618.48
2019-03-25T06:03:15.690Z,99621.14
2019-03-25T06:06:22.002Z,99613.75
2019-03-25T06:09:28.294Z,99609.48
2019-03-25T06:12:34.630Z,99614.92
2019-03-25T06:15:41.067Z,99617.56
2019-03-25T06:18:48.416Z,99616.00
2019-03-25T06:21:54.796Z,99616.34
2019-03-25T06:25:01.123Z,99607.81
2019-03-25T06:28:07.645Z,99608.77
2019-03-25T06:31:14.002Z,99605.11
2019-03-25T06:34:20.274Z,99608.61
2019-03-25T06:37:26.607Z,99608.44
2019-03-25T06:40:33.061Z,99607.67
2019-03-25T06:43:39.375Z,99600.04
2019-03-25T06:46:45.728Z,99603.55
2019-03-25T06:49:51.991Z,99598.02
2019-03-25T06:52:58.345Z,99596.44
2019-03-25T06:56:04.733Z,99595.01
2019-03-25T06:59:11.074Z,99595.38
2019-03-25T07:02:17.375Z,99592.39
2019-03-25T07:05:23.743Z,99593.45
2019-03-25T07:08:30.009Z,99581.89
2019-03-25T07:11:36.519Z,99579.73
2019-03-25T07:14:43.053Z,99579.03
2019-03-25T07:17:49.512Z,99575.94
2019-03-25T07:20:55.987Z,99574.14
2019-03-25T07:24:03.293Z,99570.92
2019-03-25T07:27:09.599Z,99562.59
2019-03-25T07:30:16.118Z,99550.52
2019-03-25T07:33:22.382Z,99543.41
2019-03-25T07:36:28.712Z,99536.25
2019-03-25T07:39:35.102Z,99531.30
2019-03-25T07:42:42.922Z,99526.95
2019-03-25T07:45:49.567Z,99515.94
2019-03-25T07:48:57.055Z,99512.70
2019-03-25T07:52:03.447Z,99506.14
2019-03-25T07:55:10.028Z,99509.06
2019-03-25T07:58:16.325Z,99509.91
2019-03-25T08:01:22.620Z,99500.52
2019-03-25T08:04:28.949Z,99488.31
2019-03-25T08:07:35.348Z,99480.26
2019-03-25T08:10:41.709Z,99475.55
2019-03-25T08:13:48.171Z,99474.89
2019-03-25T08:16:54.674Z,99464.23
2019-03-25T08:20:01.028Z,99464.22
2019-03-25T08:23:07.620Z,99465.23
2019-03-25T08:26:14.046Z,99451.09
2019-03-25T08:29:20.352Z,99453.70
2019-03-25T08:32:27.715Z,99457.30
2019-03-25T08:35:34.162Z,99450.48
2019-03-25T08:38:40.456Z,99438.05
2019-03-25T08:41:46.719Z,99438.05
2019-03-25T08:44:53.027Z,99432.83
2019-03-25T08:47:59.550Z,99434.09
2019-03-25T08:51:05.959Z,99428.95
2019-03-25T08:54:12.333Z,99431.78
2019-03-25T08:57:18.650Z,99422.13
2019-03-25T09:00:24.928Z,99418.25
2019-03-25T09:03:32.316Z,99415.90
2019-03-25T09:06:38.569Z,99415.23
2019-03-25T09:09:44.855Z,99406.47
2019-03-25T09:12:51.147Z,99396.03
2019-03-25T09:15:57.493Z,99396.02
2019-03-25T09:19:03.791Z,99389.88
2019-03-25T09:22:10.355Z,99378.00
2019-03-25T09:25:16.884Z,99378.28
2019-03-25T09:28:24.685Z,99365.82
2019-03-25T09:31:36.670Z,99366.96
2019-03-25T09:34:40.326Z,99363.55
2019-03-25T09:37:46.663Z,99358.39
2019-03-25T09:40:53.005Z,99347.95
2019-03-25T09:43:59.366Z,99341.39
2019-03-25T09:47:05.853Z,99335.47
2019-03-25T09:50:14.063Z,99337.37
2019-03-25T09:53:20.359Z,99322.67
2019-03-25T09:56:26.669Z,99312.38
2019-03-25T09:59:33.058Z,99310.41
2019-03-25T10:02:39.393Z,99305.68
2019-03-25T10:05:45.854Z,99292.14
2019-03-25T10:08:52.134Z,99278.99
2019-03-25T10:11:58.500Z,99284.11
2019-03-25T10:15:05.150Z,99270.73
2019-03-25T10:18:11.397Z,99268.00
2019-03-25T10:21:17.874Z,99267.34
2019-03-25T10:24:27.741Z,99258.30
2019-03-25T10:27:36.615Z,99245.06
2019-03-25T10:30:43.007Z,99245.53
2019-03-25T10:33:49.456Z,99236.48
2019-03-25T10:36:55.769Z,99228.48
2019-03-25T10:40:02.184Z,99225.41
2019-03-25T10:43:08.547Z,99213.39
2019-03-25T10:46:15.007Z,99211.23
2019-03-25T10:49:21.325Z,99202.58
2019-03-25T10:52:27.728Z,99202.40
2019-03-25T10:55:34.151Z,99191.95
2019-03-25T10:58:40.528Z,99181.05
2019-03-25T11:01:46.952Z,99179.47
2019-03-25T11:04:53.362Z,99166.72
2019-03-25T11:07:59.656Z,99160.79
2019-03-25T11:11:06.439Z,99155.19
2019-03-25T11:14:12.874Z,99144.85
2019-03-25T11:17:19.224Z,99138.86
2019-03-25T11:20:25.485Z,99135.42
2019-03-25T11:23:31.812Z,99130.45
2019-03-25T11:26:38.145Z,99118.88
2019-03-25T11:29:44.434Z,99106.30
2019-03-25T11:32:50.695Z,99097.51
2019-03-25T11:35:57.491Z,99087.96
2019-03-25T11:39:04.564Z,99078.72
2019-03-25T11:42:10.983Z,99073.92
2019-03-25T11:45:17.355Z,99069.80
2019-03-25T11:48:23.872Z,99061.78
2019-03-25T11:51:30.159Z,99053.62
2019-03-25T11:54:36.570Z,99051.83
2019-03-25T11:57:42.847Z,99044.14
2019-03-25T12:00:49.255Z,99038.23
2019-03-25T12:03:55.531Z,99021.41
2019-03-25T12:07:01.948Z,99007.28
2019-03-25T12:10:11.416Z,99007.77
2019-03-25T12:13:17.813Z,99003.42
2019-03-25T12:16:24.191Z,98986.06
2019-03-25T12:19:30.475Z,98981.98
2019-03-25T12:22:37.092Z,98968.18
2019-03-25T12:25:43.522Z,98959.79
2019-03-25T12:28:49.911Z,98955.04
2019-03-25T12:31:56.320Z,98955.63
2019-03-25T12:35:02.589Z,98943.64
2019-03-25T12:38:09.899Z,98932.09
2019-03-25T12:41:16.343Z,98930.53
2019-03-25T12:44:22.735Z,98928.26
2019-03-25T12:47:29.004Z,98923.03
2019-03-25T12:50:35.301Z,98919.67
2019-03-25T12:53:41.864Z,98918.02
2019-03-25T12:56:48.137Z,98912.66
2019-03-25T12:59:57.262Z,98902.12
2019-03-25T13:03:03.958Z,98892.11
2019-03-25T13:06:10.318Z,98890.92
2019-03-25T13:09:16.618Z,98890.37
2019-03-25T13:12:22.950Z,98880.10
2019-03-25T13:15:29.227Z,98870.78
2019-03-25T13:18:35.612Z,98867.33
2019-03-25T13:21:41.869Z,98856.55
2019-03-25T13:24:48.187Z,98852.06
2019-03-25T13:27:54.476Z,98852.95
2019-03-25T13:31:00.896Z,98843.37
2019-03-25T13:34:08.368Z,98842.89
2019-03-25T13:37:19.000Z,98838.81
2019-03-25T13:40:26.771Z,98839.69
2019-03-25T13:43:33.050Z,98836.44
2019-03-25T13:46:39.378Z,98829.55
2019-03-25T13:49:45.658Z,98823.62
2019-03-25T13:52:52.061Z,98816.59
2019-03-25T13:55:58.454Z,98812.19
2019-03-25T13:59:04.749Z,98810.60
2019-03-25T14:02:11.252Z,98811.02
2019-03-25T14:05:17.641Z,98804.14
2019-03-25T14:08:24.142Z,98799.43
2019-03-25T14:11:30.391Z,98795.22
2019-03-25T14:14:36.709Z,98792.40
2019-03-25T14:17:43.016Z,98788.63
2019-03-25T14:20:49.372Z,98780.63
2019-03-25T14:23:55.677Z,98784.27
2019-03-25T14:27:02.031Z,98776.11
2019-03-25T14:30:14.382Z,98775.14
2019-03-25T14:33:17.656Z,98768.30
2019-03-25T14:36:24.027Z,98768.21
2019-03-25T14:39:30.483Z,98762.31
2019-03-25T14:42:36.869Z,98767.45
2019-03-25T14:45:43.215Z,98764.63
2019-03-25T14:48:49.636Z,98762.20
2019-03-25T14:51:55.985Z,98761.78
2019-03-25T14:55:02.581Z,98753.69
2019-03-25T14:58:08.844Z,98749.45
2019-03-25T15:01:15.184Z,98744.34
2019-03-25T15:04:21.500Z,98742.02
2019-03-25T15:07:27.899Z,98738.23
2019-03-25T15:10:34.178Z,98740.05
2019-03-25T15:13:40.588Z,98737.71
2019-03-25T15:16:46.946Z,98738.31
2019-03-25T15:19:53.236Z,98734.34
2019-03-25T15:22:59.647Z,98727.03
2019-03-25T15:26:07.922Z,98717.36
2019-03-25T15:29:15.521Z,98722.22
2019-03-25T15:32:21.865Z,98719.41
2019-03-25T15:35:28.156Z,98710.09
2019-03-25T15:38:34.562Z,98715.69
2019-03-25T15:41:41.064Z,98713.67
2019-03-25T15:44:47.311Z,98711.89
2019-03-25T15:47:53.683Z,98715.40
2019-03-25T15:50:59.962Z,98715.12
2019-03-25T15:54:06.399Z,98711.73
2019-03-25T15:57:12.686Z,98713.27
2019-03-25T16:00:19.783Z,98708.62
2019-03-25T16:03:26.036Z,98705.71
2019-03-25T16:06:32.319Z,98698.59
2019-03-25T16:09:38.622Z,98702.17
2019-03-25T16:12:45.043Z,98698.00
2019-03-25T16:15:51.328Z,98692.48
2019-03-25T16:18:57.768Z,98691.85
2019-03-25T16:22:04.235Z,98690.56
2019-03-25T16:25:13.206Z,98689.06
2019-03-25T16:28:19.475Z,98700.33
2019-03-25T16:31:25.781Z,98697.50
2019-03-25T16:34:32.080Z,98701.39
2019-03-25T16:37:38.462Z,98709.38
2019-03-25T16:40:44.767Z,98700.16
2019-03-25T16:43:51.017Z,98699.47
2019-03-25T16:46:57.430Z,98701.50
2019-03-25T16:50:03.699Z,98701.39
2019-03-25T16:53:10.183Z,98706.69
2019-03-25T16:56:16.666Z,98703.38
2019-03-25T16:59:22.953Z,98694.07
2019-03-25T17:02:29.252Z,98701.58
2019-03-25T17:05:35.523Z,98701.00
2019-03-25T17:08:41.801Z,98700.64
2019-03-25T17:11:48.205Z,98700.98
2019-03-25T17:14:54.529Z,98705.34
2019-03-25T17:18:00.979Z,98708.14
2019-03-25T17:21:08.613Z,98706.30
2019-03-25T17:24:15.032Z,98714.50
2019-03-25T17:27:21.404Z,98724.88
2019-03-25T17:30:27.904Z,98722.86
2019-03-25T17:33:34.164Z,98725.19
2019-03-25T17:36:40.719Z,98722.03
2019-03-25T17:39:47.056Z,98719.38
2019-03-25T17:42:53.346Z,98715.24
2019-03-25T17:45:59.662Z,98732.65
2019-03-25T17:49:06.045Z,98732.65
2019-03-25T17:52:12.431Z,98734.60
2019-03-25T17:55:19.002Z,98732.31
2019-03-25T17:58:25.294Z,98739.05
2019-03-25T18:01:35.701Z,98728.50
2019-03-25T18:04:41.997Z,98739.84
2019-03-25T18:07:48.324Z,98749.56
2019-03-25T18:10:54.703Z,98751.08
2019-03-25T18:14:02.382Z,98756.05
2019-03-25T18:17:08.797Z,98761.23
2019-03-25T18:20:18.966Z,98767.46
2019-03-25T18:23:23.210Z,98765.77
2019-03-25T18:26:29.680Z,98773.99
2019-03-25T18:29:36.099Z,98774.25
2019-03-25T18:32:42.463Z,98772.39
2019-03-25T18:35:48.757Z,98774.27
2019-03-25T18:38:55.257Z,98769.16
2019-03-25T18:42:01.720Z,98778.28
2019-03-25T18:45:08.436Z,98782.95
2019-03-25T18:48:14.806Z,98781.25
2019-03-25T18:51:21.243Z,98793.24
2019-03-25T18:54:27.708Z,98787.69
2019-03-25T18:57:34.112Z,98792.32
2019-03-25T19:00:40.419Z,98799.84
2019-03-25T19:03:46.971Z,98798.51
2019-03-25T19:06:53.346Z,98801.09
2019-03-25T19:09:59.792Z,98804.58
2019-03-25T19:13:06.130Z,98810.63
2019-03-25T19:16:15.350Z,98807.07
2019-03-25T19:19:21.631Z,98815.80
2019-03-25T19:22:28.041Z,98818.22
2019-03-25T19:25:34.424Z,98818.63
2019-03-25T19:28:40.726Z,98820.34
2019-03-25T19:31:47.107Z,98825.72
2019-03-25T19:34:53.343Z,98819.44
2019-03-25T19:37:59.665Z,98818.22
2019-03-25T19:41:06.014Z,98819.44
2019-03-25T19:44:12.391Z,98819.94
2019-03-25T19:47:18.708Z,98809.08
2019-03-25T19:50:25.063Z,98819.03
2019-03-25T19:53:31.543Z,98814.85
2019-03-25T19:56:37.883Z,98820.25
2019-03-25T19:59:44.211Z,98820.98
2019-03-25T20:02:50.475Z,98832.37
2019-03-25T20:05:56.847Z,98834.06
2019-03-25T20:09:03.202Z,98835.22
2019-03-25T20:12:09.905Z,98842.50
2019-03-25T20:15:16.308Z,98840.48
2019-03-25T20:18:22.693Z,98838.61
2019-03-25T20:21:29.081Z,98852.22
2019-03-25T20:24:35.345Z,98853.03
2019-03-25T20:27:41.674Z,98853.78
2019-03-25T20:30:48.053Z,98852.98
2019-03-25T20:33:54.408Z,98849.64
2019-03-25T20:37:00.770Z,98855.09
2019-03-25T20:40:07.529Z,98844.77
2019-03-25T20:43:13.853Z,98845.47
2019-03-25T20:46:20.131Z,98849.27
2019-03-25T20:49:26.533Z,98854.02
2019-03-25T20:52:32.903Z,98861.54
2019-03-25T20:55:39.490Z,98858.75
2019-03-25T20:58:45.823Z,98857.59
2019-03-25T21:01:52.260Z,98858.17
2019-03-25T21:04:58.638Z,98854.01
2019-03-25T21:08:04.971Z,98862.86
2019-03-25T21:11:11.286Z,98865.45
2019-03-25T21:14:17.634Z,98863.48
2019-03-25T21:17:24.250Z,98870.48
2019-03-25T21:20:30.524Z,98861.34
2019-03-25T21:23:36.860Z,98873.80
2019-03-25T21:26:43.239Z,98867.19
2019-03-25T21:29:49.618Z,98874.17
2019-03-25T21:32:58.574Z,98876.62
2019-03-25T21:36:04.082Z,98880.62
2019-03-25T21:39:10.364Z,98880.54
2019-03-25T21:42:16.668Z,98873.22
2019-03-25T21:45:24.138Z,98869.85
2019-03-25T21:48:30.395Z,98866.80
2019-03-25T21:51:36.719Z,98864.90
2019-03-25T21:54:43.042Z,98862.17
2019-03-25T21:57:49.500Z,98858.03
2019-03-25T22:00:55.822Z,98860.13
2019-03-25T22:04:02.333Z,98860.17
2019-03-25T22:07:08.599Z,98853.95
2019-03-25T22:10:15.094Z,98855.12
2019-03-25T22:13:21.375Z,98859.42
2019-03-25T22:16:27.805Z,98854.98
2019-03-25T22:19:34.090Z,98858.89
2019-03-25T22:22:40.534Z,98858.11
2019-03-25T22:25:47.155Z,98855.66
2019-03-25T22:28:53.449Z,98859.13
2019-03-25T22:31:59.765Z,98861.73
2019-03-25T22:35:06.182Z,98856.61
2019-03-25T22:38:13.517Z,98853.33
2019-03-25T22:41:19.791Z,98851.73
2019-03-25T22:44:26.121Z,98857.85
2019-03-25T22:47:32.448Z,98852.70
2019-03-25T22:50:38.813Z,98850.81
2019-03-25T22:53:45.127Z,98860.84
2019-03-25T22:56:51.606Z,98861.76
2019-03-25T22:59:57.929Z,98864.77
2019-03-25T23:03:04.195Z,98866.63
2019-03-25T23:06:10.620Z,98867.63
2019-03-25T23:09:16.908Z,98875.51
2019-03-25T23:12:23.278Z,98876.88
2019-03-25T23:15:29.810Z,98874.45
2019-03-25T23:18:36.265Z,98872.37
2019-03-25T23:21:42.739Z,98867.72
2019-03-25T23:24:49.174Z,98868.38
2019-03-25T23:27:55.751Z,98868.14
2019-03-25T23:31:02.206Z,98874.08
2019-03-25T23:34:08.697Z,98872.55
2019-03-25T23:37:15.113Z,98878.51
2019-03-25T23:40:21.589Z,98880.20
2019-03-25T23:43:28.063Z,98882.13
2019-03-25T23:46:34.787Z,98877.70
2019-03-25T23:49:42.263Z,98885.66
2019-03-25T23:52:48.798Z,98882.50
2019-03-25T23:55:56.348Z,98889.34
2019-03-25T23:59:02.867Z,98883.84
